Time;durP1;ratioP1;P1;durP2;ratioP2;P2;SDS_P1;SDS_P2;PMS_P1;PMS_P2;Temp;Humidity;BMP_temperature;BMP_pressure;BME280_temperature;BME280_humidity;BME280_pressure;Samples;Min_cycle;Max_cycle;Signal;HPM_P1;HPM_P2
2022/01/14 00:01:00;;;;;;;0.70;0.60;;;6.70;99.90;;;;;;4958947;28;20190;-87
2022/01/14 00:03:26;;;;;;;0.80;0.70;;;6.60;99.90;;;;;;4939193;28;21468;-89
2022/01/14 00:05:51;;;;;;;0.80;0.60;;;6.60;99.90;;;;;;4962378;28;21860;-90
2022/01/14 00:08:18;;;;;;;0.80;0.60;;;6.60;99.90;;;;;;4937993;28;20194;-90
2022/01/14 00:10:48;;;;;;;1.20;1.10;;;6.60;99.90;;;;;;4963025;28;20217;-89
2022/01/14 00:13:39;;;;;;;0.80;0.60;;;6.60;99.90;;;;;;4959694;28;20453;-89
2022/01/14 00:16:00;;;;;;;0.80;0.60;;;6.60;99.90;;;;;;4961295;28;21003;-90
2022/01/14 00:18:26;;;;;;;0.80;0.60;;;6.60;99.90;;;;;;4944587;28;20969;-90
2022/01/14 00:20:51;;;;;;;0.80;0.80;;;6.60;99.90;;;;;;4976494;28;20193;-90
2022/01/14 00:23:18;;;;;;;0.80;0.70;;;6.50;99.90;;;;;;4959707;28;20233;-89
2022/01/14 00:33:56;;;;;;;0.70;0.60;;;6.50;99.90;;;;;;4967907;28;20456;-90
2022/01/14 00:36:21;;;;;;;0.80;0.60;;;6.50;99.90;;;;;;4961889;28;20493;-89
2022/01/14 00:38:47;;;;;;;0.80;0.60;;;6.50;99.90;;;;;;4959957;28;20615;-89
2022/01/14 00:41:13;;;;;;;0.80;0.80;;;6.50;99.90;;;;;;4946357;28;20190;-90
2022/01/14 00:43:41;;;;;;;1.27;1.17;;;6.50;99.90;;;;;;4956247;28;20186;-89
2022/01/14 00:46:08;;;;;;;0.70;0.60;;;6.50;99.90;;;;;;4960115;28;20448;-90
2022/01/14 00:48:33;;;;;;;0.80;0.70;;;6.50;99.90;;;;;;4959457;28;20473;-89
2022/01/14 00:50:59;;;;;;;0.80;0.70;;;6.50;99.90;;;;;;4960716;28;20547;-89
2022/01/14 00:53:24;;;;;;;2.83;2.63;;;6.50;99.90;;;;;;4954772;28;20197;-90
2022/01/14 00:55:58;;;;;;;0.77;0.60;;;6.50;99.90;;;;;;4946826;28;20309;-90
2022/01/14 01:01:08;;;;;;;1.10;0.97;;;6.50;99.90;;;;;;4954662;28;20440;-89
2022/01/14 01:03:34;;;;;;;0.77;0.60;;;6.50;99.90;;;;;;4965608;28;20458;-90
2022/01/14 01:06:00;;;;;;;0.77;0.60;;;6.50;99.90;;;;;;4955310;28;20211;-90
2022/01/14 01:08:28;;;;;;;0.80;0.60;;;6.50;99.90;;;;;;4965466;28;20945;-90
2022/01/14 01:10:54;;;;;;;0.80;0.70;;;6.50;99.90;;;;;;4961620;28;20448;-89
2022/01/14 01:13:28;;;;;;;1.10;1.00;;;6.50;99.90;;;;;;4962894;28;20449;-89
2022/01/14 01:15:54;;;;;;;0.80;0.70;;;6.50;99.90;;;;;;4940979;28;20582;-90
2022/01/14 01:18:19;;;;;;;0.80;0.60;;;6.50;99.90;;;;;;4961098;28;20441;-90
2022/01/14 01:20:46;;;;;;;1.57;1.27;;;6.50;99.90;;;;;;4967004;28;20456;-90
2022/01/14 01:23:11;;;;;;;0.80;0.60;;;6.50;99.90;;;;;;4965250;28;20667;-90
2022/01/14 01:25:42;;;;;;;0.80;0.60;;;6.50;99.90;;;;;;4970569;28;20445;-88
2022/01/14 01:28:07;;;;;;;0.80;0.60;;;6.50;99.90;;;;;;4952163;28;20209;-89
2022/01/14 01:33:00;;;;;;;0.80;0.60;;;6.50;99.90;;;;;;4951394;28;20190;-90
2022/01/14 01:35:27;;;;;;;0.80;0.60;;;6.50;99.90;;;;;;4956344;28;20217;-90
2022/01/14 01:37:53;;;;;;;0.70;0.60;;;6.50;99.90;;;;;;4953184;28;20449;-90
2022/01/14 01:40:21;;;;;;;0.80;0.60;;;6.50;99.90;;;;;;4960644;28;20441;-90
2022/01/14 01:42:46;;;;;;;0.80;0.70;;;6.50;99.90;;;;;;4935514;28;20196;-89
2022/01/14 01:45:19;;;;;;;1.43;1.33;;;6.50;99.90;;;;;;4958872;28;20441;-89
2022/01/14 01:47:49;;;;;;;0.90;0.80;;;6.50;99.90;;;;;;4954870;28;20523;-90
2022/01/14 01:50:19;;;;;;;2.60;2.50;;;6.50;99.90;;;;;;4956276;28;20499;-90
2022/01/14 01:52:45;;;;;;;0.80;0.70;;;6.50;99.90;;;;;;4954317;28;22126;-90
2022/01/14 01:55:11;;;;;;;0.80;0.70;;;6.50;99.90;;;;;;4937903;28;20992;-89
2022/01/14 01:57:37;;;;;;;0.80;0.67;;;6.50;99.90;;;;;;4952786;28;20352;-90
2022/01/14 02:00:07;;;;;;;0.80;0.60;;;6.50;99.90;;;;;;4939688;28;21040;-90
2022/01/14 02:02:35;;;;;;;0.80;0.60;;;6.50;99.90;;;;;;4946889;28;20198;-90
2022/01/14 02:05:02;;;;;;;0.80;0.60;;;6.50;99.90;;;;;;4963927;28;20536;-90
2022/01/14 02:07:28;;;;;;;0.80;0.60;;;6.50;99.90;;;;;;4957007;28;20460;-89
2022/01/14 02:09:53;;;;;;;0.80;0.70;;;6.50;99.90;;;;;;4967921;28;20437;-89
2022/01/14 02:12:19;;;;;;;0.80;0.70;;;6.50;99.90;;;;;;4934770;28;20216;-89
2022/01/14 02:14:56;;;;;;;0.80;0.70;;;6.50;99.90;;;;;;4954102;28;20209;-89
2022/01/14 02:17:32;;;;;;;0.70;0.60;;;6.50;99.90;;;;;;4951767;28;20624;-90
2022/01/14 02:22:54;;;;;;;0.80;0.60;;;6.50;99.90;;;;;;4952463;28;20544;-89
2022/01/14 02:25:28;;;;;;;0.77;0.60;;;6.50;99.90;;;;;;4948575;28;20444;-89
2022/01/14 02:27:56;;;;;;;0.80;0.70;;;6.50;99.90;;;;;;4958679;28;20456;-90
2022/01/14 02:30:24;;;;;;;0.80;0.70;;;6.50;99.90;;;;;;4941287;28;20868;-87
2022/01/14 02:32:49;;;;;;;0.80;0.70;;;6.50;99.90;;;;;;4952828;28;20453;-88
2022/01/14 02:35:15;;;;;;;0.80;0.60;;;6.50;99.90;;;;;;4948452;28;20453;-88
2022/01/14 02:37:40;;;;;;;5.03;1.53;;;6.60;99.90;;;;;;4958856;28;20551;-90
2022/01/14 02:40:06;;;;;;;0.80;0.60;;;6.60;99.90;;;;;;4957989;28;20197;-87
2022/01/14 02:42:32;;;;;;;0.80;0.60;;;6.60;99.90;;;;;;4952695;28;20283;-89
2022/01/14 02:45:02;;;;;;;0.80;0.60;;;6.60;99.90;;;;;;4953028;28;22282;-89
2022/01/14 02:47:29;;;;;;;0.80;0.60;;;6.60;99.90;;;;;;4958178;28;20458;-89
2022/01/14 02:49:54;;;;;;;1.33;1.23;;;6.60;99.90;;;;;;4946967;28;20519;-89
2022/01/14 02:52:29;;;;;;;0.70;0.50;;;6.60;99.90;;;;;;4938121;28;20950;-89
2022/01/14 02:55:14;;;;;;;0.80;0.60;;;6.50;99.90;;;;;;4956156;28;20547;-89
2022/01/14 02:57:49;;;;;;;0.80;0.70;;;6.60;99.90;;;;;;4934110;28;20548;-89
2022/01/14 03:00:17;;;;;;;0.70;0.60;;;6.60;99.90;;;;;;4952685;28;20446;-90
2022/01/14 03:02:46;;;;;;;0.73;0.60;;;6.60;99.90;;;;;;4939108;28;20555;-89
2022/01/14 03:05:12;;;;;;;0.77;0.60;;;6.50;99.90;;;;;;4941088;28;20454;-90
2022/01/14 03:07:39;;;;;;;3.23;3.03;;;6.50;99.90;;;;;;4953126;28;20531;-90
2022/01/14 03:10:06;;;;;;;0.80;0.63;;;6.60;99.90;;;;;;4950675;28;20485;-89
2022/01/14 03:12:33;;;;;;;0.80;0.60;;;6.50;99.90;;;;;;4936647;28;21304;-90
2022/01/14 03:14:58;;;;;;;0.80;0.70;;;6.50;99.90;;;;;;4953171;28;20449;-90
2022/01/14 03:17:24;;;;;;;1.53;1.43;;;6.50;99.90;;;;;;4942483;28;20500;-89
2022/01/14 03:19:50;;;;;;;0.73;0.60;;;6.50;99.90;;;;;;4957767;28;20277;-91
2022/01/14 03:22:21;;;;;;;0.80;0.60;;;6.60;99.90;;;;;;4952726;28;21285;-90
2022/01/14 03:27:12;;;;;;;0.93;0.83;;;6.50;99.90;;;;;;4954867;28;20489;-90
2022/01/14 03:29:38;;;;;;;1.13;1.00;;;6.50;99.90;;;;;;4951465;28;20217;-89
2022/01/14 03:32:04;;;;;;;0.80;0.70;;;6.50;99.90;;;;;;4946481;28;20197;-89
2022/01/14 03:34:30;;;;;;;0.80;0.60;;;6.50;99.90;;;;;;4957201;28;20204;-90
2022/01/14 03:36:56;;;;;;;0.73;0.60;;;6.50;99.90;;;;;;4967446;28;20495;-89
2022/01/14 03:39:22;;;;;;;0.70;0.60;;;6.50;99.90;;;;;;4969004;28;20812;-89
2022/01/14 03:41:47;;;;;;;1.33;1.23;;;6.50;99.90;;;;;;4951887;28;20205;-88
2022/01/14 03:44:15;;;;;;;0.80;0.77;;;6.50;99.90;;;;;;4950219;28;20850;-89
2022/01/14 03:46:42;;;;;;;0.70;0.60;;;6.50;99.90;;;;;;4944666;28;20465;-90
2022/01/14 03:49:07;;;;;;;0.70;0.60;;;6.50;99.90;;;;;;4950529;28;20556;-90
2022/01/14 03:51:33;;;;;;;0.77;0.63;;;6.50;99.90;;;;;;4953139;28;20656;-89
2022/01/14 03:53:58;;;;;;;0.80;0.60;;;6.50;99.90;;;;;;4952486;28;20338;-90
2022/01/14 03:56:25;;;;;;;0.80;0.60;;;6.50;99.90;;;;;;4957738;28;20856;-89
2022/01/14 03:58:53;;;;;;;0.80;0.60;;;6.50;99.90;;;;;;4951731;28;20192;-90
2022/01/14 04:01:22;;;;;;;0.80;0.70;;;6.50;99.90;;;;;;4962197;28;21079;-90
2022/01/14 04:03:49;;;;;;;0.90;0.87;;;6.50;99.90;;;;;;4955856;28;20452;-89
2022/01/14 04:06:16;;;;;;;0.80;0.60;;;6.50;99.90;;;;;;4958297;28;20450;-90
2022/01/14 04:08:42;;;;;;;0.80;0.60;;;6.50;99.90;;;;;;4958624;28;20441;-90
2022/01/14 04:11:09;;;;;;;0.80;0.60;;;6.40;99.90;;;;;;4953038;28;20456;-90
2022/01/14 04:13:42;;;;;;;0.80;0.70;;;6.40;99.90;;;;;;4951743;28;22571;-88
2022/01/14 04:16:08;;;;;;;0.80;0.60;;;6.40;99.90;;;;;;4950905;28;20481;-89
2022/01/14 04:18:34;;;;;;;0.80;0.60;;;6.40;99.90;;;;;;4932831;28;20456;-89
2022/01/14 04:20:59;;;;;;;0.70;0.60;;;6.40;99.90;;;;;;4964322;28;20658;-91
2022/01/14 04:23:25;;;;;;;0.70;0.60;;;6.40;99.90;;;;;;4947134;28;20675;-90
2022/01/14 04:25:53;;;;;;;0.80;0.70;;;6.40;99.90;;;;;;4956565;28;20705;-90
2022/01/14 04:28:20;;;;;;;0.80;0.70;;;6.30;99.90;;;;;;4945816;28;20205;-89
2022/01/14 04:30:47;;;;;;;0.80;0.70;;;6.40;99.90;;;;;;4942846;28;21023;-90
2022/01/14 04:33:13;;;;;;;0.80;0.70;;;6.30;99.90;;;;;;4965839;28;20488;-90
2022/01/14 04:35:39;;;;;;;0.70;0.60;;;6.40;99.90;;;;;;4947114;28;20468;-90
2022/01/14 04:38:04;;;;;;;0.70;0.60;;;6.30;99.90;;;;;;4950417;28;20848;-88
2022/01/14 04:40:31;;;;;;;0.70;0.60;;;6.30;99.90;;;;;;4934860;28;20316;-89
2022/01/14 04:42:58;;;;;;;0.80;0.60;;;6.30;99.90;;;;;;4947611;28;22011;-90
2022/01/14 04:45:41;;;;;;;0.80;0.70;;;6.30;99.90;;;;;;4955768;28;20445;-89
2022/01/14 04:48:09;;;;;;;0.80;0.70;;;6.30;99.90;;;;;;4948145;28;20464;-89
2022/01/14 04:50:35;;;;;;;0.70;0.60;;;6.30;99.90;;;;;;4965292;28;20442;-89
2022/01/14 04:53:01;;;;;;;0.70;0.60;;;6.30;99.90;;;;;;4957718;28;20453;-90
2022/01/14 04:55:27;;;;;;;0.70;0.60;;;6.20;99.90;;;;;;4948231;28;20178;-89
2022/01/14 04:57:54;;;;;;;1.10;0.80;;;6.20;99.90;;;;;;4958884;28;20881;-89
2022/01/14 05:00:22;;;;;;;0.70;0.70;;;6.20;99.90;;;;;;4955619;28;20456;-89
2022/01/14 05:02:48;;;;;;;0.70;0.70;;;6.20;99.90;;;;;;4965089;28;21478;-89
2022/01/14 05:05:17;;;;;;;0.70;0.60;;;6.20;99.90;;;;;;4939977;28;20447;-90
2022/01/14 05:07:45;;;;;;;0.70;0.60;;;6.20;99.90;;;;;;4954648;28;20190;-89
2022/01/14 05:12:49;;;;;;;0.70;0.60;;;6.20;99.90;;;;;;4949926;28;20457;-89
2022/01/14 05:15:16;;;;;;;0.70;0.60;;;6.20;99.90;;;;;;4971182;28;20442;-91
2022/01/14 05:17:42;;;;;;;0.70;0.60;;;6.20;99.90;;;;;;4943990;28;20359;-89
2022/01/14 05:20:09;;;;;;;0.70;0.60;;;6.20;99.90;;;;;;4964376;28;20453;-90
2022/01/14 05:22:34;;;;;;;0.70;0.60;;;6.20;99.90;;;;;;4938851;28;20461;-89
2022/01/14 05:25:00;;;;;;;0.70;0.60;;;6.20;99.90;;;;;;4938783;28;20470;-90
2022/01/14 05:27:26;;;;;;;0.70;0.70;;;6.20;99.90;;;;;;4937164;28;20320;-90
2022/01/14 05:29:51;;;;;;;0.70;0.70;;;6.20;99.90;;;;;;4955902;28;20212;-90
2022/01/14 05:32:17;;;;;;;0.70;0.60;;;6.20;99.90;;;;;;4933483;28;20186;-89
2022/01/14 05:34:44;;;;;;;0.70;0.60;;;6.20;99.90;;;;;;4956271;28;21223;-89
2022/01/14 05:37:11;;;;;;;0.70;0.60;;;6.30;99.90;;;;;;4971943;28;20845;-86
2022/01/14 05:39:36;;;;;;;0.70;0.60;;;6.20;99.90;;;;;;4956562;28;20449;-90
2022/01/14 05:42:03;;;;;;;1.10;1.00;;;6.30;99.90;;;;;;4961942;28;20500;-87
2022/01/14 05:44:30;;;;;;;0.70;0.70;;;6.20;99.90;;;;;;4962328;28;20192;-89
2022/01/14 05:46:57;;;;;;;0.70;0.60;;;6.20;99.90;;;;;;4948095;28;20449;-89
2022/01/14 05:49:23;;;;;;;0.70;0.70;;;6.20;99.90;;;;;;4961141;28;20481;-89
2022/01/14 05:51:49;;;;;;;2.93;1.17;;;6.20;99.90;;;;;;4953227;28;20465;-90
2022/01/14 05:54:16;;;;;;;0.70;0.67;;;6.20;99.90;;;;;;4958549;28;20441;-90
2022/01/14 05:56:42;;;;;;;0.70;0.60;;;6.20;99.90;;;;;;4958584;28;20988;-90
2022/01/14 05:59:08;;;;;;;0.70;0.53;;;6.30;99.90;;;;;;4940314;28;20440;-89
2022/01/14 06:01:33;;;;;;;1.97;1.03;;;6.30;99.90;;;;;;4952246;28;20461;-89
2022/01/14 06:04:03;;;;;;;0.70;0.60;;;6.30;99.90;;;;;;4950723;28;20865;-88
2022/01/14 06:06:30;;;;;;;0.80;0.80;;;6.30;99.90;;;;;;4955671;28;20196;-89
2022/01/14 06:08:56;;;;;;;1.83;1.73;;;6.40;99.90;;;;;;4944481;28;20470;-89
2022/01/14 06:11:22;;;;;;;0.70;0.60;;;6.30;99.90;;;;;;4959331;28;21171;-90
2022/01/14 06:13:47;;;;;;;0.70;0.60;;;6.30;99.90;;;;;;4949913;28;20201;-89
2022/01/14 06:16:14;;;;;;;0.90;0.90;;;6.30;99.90;;;;;;4967535;28;20852;-89
2022/01/14 06:18:40;;;;;;;0.70;0.60;;;6.30;99.90;;;;;;4971426;28;20321;-89
2022/01/14 06:21:06;;;;;;;0.80;0.80;;;6.30;99.90;;;;;;4956129;28;20540;-90
2022/01/14 06:23:32;;;;;;;0.70;0.60;;;6.40;99.90;;;;;;4972371;28;20510;-89
2022/01/14 06:25:58;;;;;;;0.80;0.70;;;6.40;99.90;;;;;;4970180;28;20456;-88
2022/01/14 06:28:24;;;;;;;0.70;0.70;;;6.40;99.90;;;;;;4961101;28;20453;-89
2022/01/14 06:30:50;;;;;;;0.73;0.70;;;6.40;99.90;;;;;;4956821;28;20464;-90
2022/01/14 06:33:16;;;;;;;0.70;0.60;;;6.40;99.90;;;;;;4972537;28;20651;-90
2022/01/14 06:35:41;;;;;;;0.70;0.60;;;6.40;99.90;;;;;;4967354;28;20478;-90
2022/01/14 06:38:07;;;;;;;0.80;0.60;;;6.40;99.90;;;;;;4969308;28;20205;-90
2022/01/14 06:40:33;;;;;;;1.03;0.90;;;6.40;99.90;;;;;;4970270;28;20190;-87
2022/01/14 06:43:00;;;;;;;0.73;0.60;;;6.40;99.90;;;;;;4970134;28;20189;-86
2022/01/14 06:45:25;;;;;;;0.70;0.60;;;6.40;99.90;;;;;;4973280;28;20455;-89
2022/01/14 06:47:51;;;;;;;0.80;0.60;;;6.40;99.90;;;;;;4971576;28;20465;-89
2022/01/14 06:50:17;;;;;;;0.80;0.60;;;6.40;99.90;;;;;;4972269;28;20200;-89
2022/01/14 06:52:43;;;;;;;0.80;0.60;;;6.50;99.90;;;;;;4956144;28;20467;-89
2022/01/14 06:55:10;;;;;;;0.70;0.60;;;6.50;99.90;;;;;;4953507;28;20449;-90
2022/01/14 06:57:35;;;;;;;0.70;0.60;;;6.50;99.90;;;;;;4964671;28;20490;-89
2022/01/14 07:00:04;;;;;;;0.70;0.60;;;6.50;99.90;;;;;;4975325;28;20455;-90
2022/01/14 07:02:30;;;;;;;0.70;0.50;;;6.50;99.90;;;;;;4963367;28;20217;-90
2022/01/14 07:04:55;;;;;;;0.80;0.60;;;6.50;99.90;;;;;;4975697;28;20472;-90
2022/01/14 07:07:21;;;;;;;0.80;0.63;;;6.60;99.90;;;;;;4968586;28;20190;-89
2022/01/14 07:09:58;;;;;;;0.80;0.60;;;6.60;99.90;;;;;;4972242;28;20232;-88
2022/01/14 07:12:28;;;;;;;0.73;0.70;;;6.50;99.90;;;;;;4970253;28;20197;-90
2022/01/14 07:14:56;;;;;;;0.80;0.60;;;6.60;99.90;;;;;;4967845;28;21171;-89
2022/01/14 07:17:25;;;;;;;0.70;0.60;;;6.50;99.90;;;;;;4977671;28;20486;-89
2022/01/14 07:19:53;;;;;;;0.70;0.60;;;6.50;99.90;;;;;;4973312;28;20448;-90
2022/01/14 07:22:19;;;;;;;0.80;0.70;;;6.60;99.90;;;;;;4975588;28;20449;-90
2022/01/14 07:24:45;;;;;;;0.70;0.57;;;6.50;99.90;;;;;;4951748;28;20701;-90
2022/01/14 07:27:11;;;;;;;0.70;0.60;;;6.50;99.90;;;;;;4966781;28;20544;-90
2022/01/14 07:29:37;;;;;;;0.70;0.60;;;6.60;99.90;;;;;;4965813;28;20191;-89
2022/01/14 07:32:03;;;;;;;0.80;0.60;;;6.60;99.90;;;;;;4970602;28;20464;-90
2022/01/14 07:34:28;;;;;;;0.70;0.60;;;6.60;99.90;;;;;;4966068;28;20929;-90
2022/01/14 07:36:54;;;;;;;0.70;0.60;;;6.60;99.90;;;;;;4957492;28;21059;-90
2022/01/14 07:39:20;;;;;;;0.70;0.70;;;6.50;99.90;;;;;;4960068;28;20195;-90
2022/01/14 07:41:48;;;;;;;0.70;0.60;;;6.60;99.90;;;;;;4954018;28;20193;-90
2022/01/14 07:44:15;;;;;;;0.70;0.70;;;6.60;99.90;;;;;;4977264;28;20191;-90
2022/01/14 07:46:40;;;;;;;0.70;0.60;;;6.50;99.90;;;;;;4970251;28;20434;-90
2022/01/14 07:49:06;;;;;;;0.70;0.60;;;6.50;99.90;;;;;;4952899;28;20437;-89
2022/01/14 07:51:32;;;;;;;0.70;0.60;;;6.60;99.90;;;;;;4968856;28;20186;-89
2022/01/14 07:53:58;;;;;;;0.70;0.60;;;6.60;99.90;;;;;;4966137;28;20193;-89
2022/01/14 07:56:24;;;;;;;0.70;0.50;;;6.60;99.90;;;;;;4971702;28;20841;-90
2022/01/14 07:58:49;;;;;;;0.80;0.80;;;6.60;99.90;;;;;;4975226;28;20618;-90
2022/01/14 08:01:15;;;;;;;0.70;0.60;;;6.60;99.90;;;;;;4968285;28;20454;-90
2022/01/14 08:03:41;;;;;;;0.70;0.60;;;6.50;99.90;;;;;;4972357;28;20236;-90
2022/01/14 08:06:09;;;;;;;0.70;0.60;;;6.50;99.90;;;;;;4969211;28;20449;-92
2022/01/14 08:08:35;;;;;;;0.70;0.60;;;6.50;99.90;;;;;;4953148;28;20202;-90
2022/01/14 08:11:01;;;;;;;0.70;0.60;;;6.60;99.90;;;;;;4964555;28;20956;-92
2022/01/14 08:13:26;;;;;;;0.70;0.60;;;6.60;99.90;;;;;;4965321;28;20508;-91
2022/01/14 08:15:52;;;;;;;0.80;0.70;;;6.60;99.90;;;;;;4970756;28;20315;-91
2022/01/14 08:18:18;;;;;;;0.70;0.60;;;6.60;99.90;;;;;;4972781;28;20189;-90
2022/01/14 08:20:43;;;;;;;0.70;0.60;;;6.60;99.90;;;;;;4968235;28;20197;-91
2022/01/14 08:23:09;;;;;;;0.73;0.67;;;6.60;99.90;;;;;;4962539;28;20186;-88
2022/01/14 08:25:35;;;;;;;2.77;2.60;;;6.60;99.90;;;;;;4978759;28;20178;-90
2022/01/14 08:28:00;;;;;;;0.70;0.60;;;6.60;99.90;;;;;;4957113;28;20250;-88
2022/01/14 08:30:26;;;;;;;0.70;0.60;;;6.60;99.90;;;;;;4979451;28;20957;-89
2022/01/14 08:32:51;;;;;;;0.70;0.60;;;6.60;99.90;;;;;;4949312;28;20642;-90
2022/01/14 08:35:17;;;;;;;0.70;0.60;;;6.60;99.90;;;;;;4968611;28;20201;-90
2022/01/14 08:37:43;;;;;;;0.70;0.60;;;6.60;99.90;;;;;;4953602;28;20226;-89
2022/01/14 08:40:10;;;;;;;0.70;0.60;;;6.70;99.90;;;;;;4970475;28;20186;-90
2022/01/14 08:42:37;;;;;;;0.70;0.70;;;6.70;99.90;;;;;;4971243;28;20185;-89
2022/01/14 08:45:04;;;;;;;0.80;0.70;;;6.70;99.90;;;;;;4948425;28;20441;-88
2022/01/14 08:47:30;;;;;;;0.70;0.60;;;6.60;99.90;;;;;;4964682;28;20501;-90
2022/01/14 08:49:56;;;;;;;0.70;0.60;;;6.60;99.90;;;;;;4972396;28;20450;-86
2022/01/14 08:52:21;;;;;;;0.70;0.60;;;6.60;99.90;;;;;;4964791;28;20190;-87
2022/01/14 08:54:47;;;;;;;0.70;0.60;;;6.70;99.90;;;;;;4968354;28;20964;-86
2022/01/14 08:57:13;;;;;;;0.70;0.60;;;6.70;99.90;;;;;;4947615;28;20238;-86
2022/01/14 08:59:39;;;;;;;0.70;0.60;;;6.70;99.90;;;;;;4966943;28;20194;-87
2022/01/14 09:02:05;;;;;;;0.70;0.60;;;6.70;99.90;;;;;;4947363;28;21065;-87
2022/01/14 09:04:31;;;;;;;0.70;0.60;;;6.70;99.90;;;;;;4958869;28;21022;-87
2022/01/14 09:06:56;;;;;;;0.70;0.60;;;6.70;99.90;;;;;;4970129;28;20185;-87
2022/01/14 09:09:22;;;;;;;0.70;0.60;;;6.80;99.90;;;;;;4969881;28;20194;-87
2022/01/14 09:11:48;;;;;;;0.70;0.70;;;6.80;99.90;;;;;;4960682;28;20194;-87
2022/01/14 09:14:13;;;;;;;0.70;0.60;;;6.80;99.90;;;;;;4963506;28;20433;-87
2022/01/14 09:16:39;;;;;;;0.80;0.60;;;6.80;99.90;;;;;;4965250;28;20591;-87
2022/01/14 09:19:05;;;;;;;0.80;0.70;;;6.90;99.90;;;;;;4965954;28;20237;-87
2022/01/14 09:21:30;;;;;;;0.70;0.60;;;6.90;99.90;;;;;;4967321;28;20191;-86
2022/01/14 09:24:05;;;;;;;0.70;0.60;;;6.90;99.90;;;;;;4969919;28;20216;-87
2022/01/14 09:26:33;;;;;;;0.70;0.60;;;6.90;99.90;;;;;;4957627;28;20292;-86
2022/01/14 09:28:59;;;;;;;0.80;0.70;;;6.90;99.90;;;;;;4966275;28;20468;-86
2022/01/14 09:31:25;;;;;;;0.70;0.60;;;6.90;99.90;;;;;;4967999;28;20437;-86
2022/01/14 09:33:51;;;;;;;0.70;0.60;;;6.90;99.90;;;;;;4966757;28;22219;-87
2022/01/14 09:36:16;;;;;;;0.80;0.60;;;7.00;99.90;;;;;;4970373;28;20272;-87
2022/01/14 09:38:42;;;;;;;0.73;0.60;;;7.00;99.90;;;;;;4968425;28;20193;-87
2022/01/14 09:41:08;;;;;;;0.80;0.70;;;7.00;99.90;;;;;;4955975;28;20198;-86
2022/01/14 09:43:36;;;;;;;0.80;0.60;;;7.00;99.90;;;;;;4975552;28;20455;-86
2022/01/14 09:46:05;;;;;;;0.70;0.60;;;7.00;99.90;;;;;;4963786;28;21181;-86
2022/01/14 09:48:31;;;;;;;0.80;0.70;;;7.00;99.90;;;;;;4971294;28;20901;-86
2022/01/14 09:50:57;;;;;;;0.70;0.60;;;7.00;99.90;;;;;;4967550;28;20445;-87
2022/01/14 09:53:25;;;;;;;0.80;0.60;;;7.00;99.90;;;;;;4971511;28;21027;-86
2022/01/14 09:55:51;;;;;;;1.80;1.43;;;7.10;99.90;;;;;;4973530;28;20457;-86
2022/01/14 09:58:17;;;;;;;0.80;0.70;;;7.10;99.90;;;;;;4970603;28;20513;-87
2022/01/14 10:00:43;;;;;;;0.80;0.70;;;7.10;99.90;;;;;;4969562;28;20265;-87
2022/01/14 10:03:24;;;;;;;1.07;0.97;;;7.10;99.90;;;;;;4959157;28;20194;-85
2022/01/14 10:05:55;;;;;;;0.70;0.60;;;7.20;99.90;;;;;;4943092;28;20899;-85
2022/01/14 10:08:25;;;;;;;0.73;0.60;;;7.20;99.90;;;;;;4965184;28;20437;-85
2022/01/14 10:10:59;;;;;;;0.73;0.60;;;7.20;99.90;;;;;;4963955;28;20450;-85
2022/01/14 10:13:32;;;;;;;0.90;0.70;;;7.20;99.90;;;;;;4970547;28;20430;-87
2022/01/14 10:16:09;;;;;;;0.80;0.60;;;7.20;99.90;;;;;;4972234;28;20468;-87
2022/01/14 10:18:35;;;;;;;0.70;0.60;;;7.30;99.90;;;;;;4952464;28;20449;-87
2022/01/14 10:21:05;;;;;;;0.80;0.60;;;7.30;99.90;;;;;;4948655;28;20584;-87
2022/01/14 10:23:41;;;;;;;0.80;0.60;;;7.30;99.90;;;;;;4958936;28;20958;-88
2022/01/14 10:26:07;;;;;;;0.77;0.60;;;7.30;99.90;;;;;;4960630;28;20475;-87
2022/01/14 10:28:32;;;;;;;2.70;1.13;;;7.30;99.90;;;;;;4970777;28;20918;-87
2022/01/14 10:30:58;;;;;;;0.80;0.60;;;7.30;99.90;;;;;;4953906;28;20190;-86
2022/01/14 10:33:28;;;;;;;0.80;0.60;;;7.30;99.90;;;;;;4950485;28;20182;-87
2022/01/14 10:35:56;;;;;;;0.80;0.60;;;7.30;99.90;;;;;;4972007;28;20802;-87
2022/01/14 10:38:24;;;;;;;0.80;0.60;;;7.40;99.90;;;;;;4949847;28;20449;-87
2022/01/14 10:40:50;;;;;;;0.87;0.87;;;7.40;99.90;;;;;;4940236;28;20441;-87
2022/01/14 10:43:21;;;;;;;0.93;0.80;;;7.40;99.90;;;;;;4965988;28;20539;-87
2022/01/14 10:45:48;;;;;;;0.80;0.60;;;7.50;99.90;;;;;;4970743;28;20441;-84
2022/01/14 10:48:16;;;;;;;0.80;0.70;;;7.50;99.90;;;;;;4968438;28;20458;-87
2022/01/14 10:50:48;;;;;;;0.80;0.60;;;7.50;99.90;;;;;;4967432;28;21178;-87
2022/01/14 10:53:17;;;;;;;0.80;0.60;;;7.50;99.90;;;;;;4971812;28;20449;-90
2022/01/14 10:55:48;;;;;;;5.23;1.10;;;7.50;99.90;;;;;;4972550;28;20946;-87
2022/01/14 10:58:23;;;;;;;0.80;0.60;;;7.50;99.90;;;;;;4973183;28;20441;-90
2022/01/14 11:00:51;;;;;;;0.80;0.60;;;7.50;99.90;;;;;;4966379;28;20549;-89
2022/01/14 11:03:32;;;;;;;1.83;0.90;;;7.50;99.90;;;;;;4960368;28;20488;-90
2022/01/14 11:06:24;;;;;;;0.80;0.60;;;7.50;99.90;;;;;;4960667;28;20471;-91
2022/01/14 11:09:00;;;;;;;0.80;0.60;;;7.50;99.90;;;;;;4950968;28;20449;-90
2022/01/14 11:11:28;;;;;;;0.80;0.70;;;7.60;99.90;;;;;;4963726;28;20801;-90
2022/01/14 11:13:54;;;;;;;0.80;0.60;;;7.60;99.90;;;;;;4959081;28;20453;-90
2022/01/14 11:16:20;;;;;;;0.80;0.60;;;7.60;99.90;;;;;;4955016;28;20473;-91
2022/01/14 11:18:46;;;;;;;0.90;0.70;;;7.70;99.90;;;;;;4969176;28;20448;-90
2022/01/14 11:23:57;;;;;;;0.80;0.60;;;7.70;99.90;;;;;;4962351;28;20952;-90
2022/01/14 11:26:29;;;;;;;0.90;0.80;;;7.70;99.90;;;;;;4971428;28;20509;-90
2022/01/14 11:29:12;;;;;;;0.80;0.60;;;7.70;99.90;;;;;;4952613;28;20437;-91
2022/01/14 11:31:39;;;;;;;0.80;0.60;;;7.70;99.90;;;;;;4971929;28;20441;-90
2022/01/14 11:34:27;;;;;;;0.80;0.60;;;7.70;99.90;;;;;;4974469;28;20429;-92
2022/01/14 11:36:58;;;;;;;0.80;0.60;;;7.70;99.90;;;;;;4952246;28;20468;-90
2022/01/14 11:39:26;;;;;;;0.80;0.60;;;7.80;99.90;;;;;;4980459;28;20523;-90
2022/01/14 11:41:57;;;;;;;0.80;0.60;;;7.80;99.90;;;;;;4972167;28;20457;-89
2022/01/14 11:44:46;;;;;;;0.80;0.60;;;7.90;99.90;;;;;;4957448;28;20432;-90
2022/01/14 11:47:46;;;;;;;0.80;0.60;;;7.90;99.90;;;;;;4951792;28;20528;-89
2022/01/14 11:50:23;;;;;;;0.80;0.60;;;7.90;99.90;;;;;;4967430;28;20933;-91
2022/01/14 11:52:50;;;;;;;0.80;0.60;;;7.80;99.90;;;;;;4954792;28;20444;-90
2022/01/14 11:55:21;;;;;;;0.77;0.60;;;7.90;99.90;;;;;;4966301;28;20868;-91
2022/01/14 11:57:51;;;;;;;0.73;0.50;;;8.00;99.90;;;;;;4938843;28;20484;-89
2022/01/14 12:00:26;;;;;;;0.80;0.60;;;8.60;99.90;;;;;;4976293;28;20456;-87
2022/01/14 12:02:55;;;;;;;0.80;0.60;;;8.80;99.90;;;;;;4959685;28;20920;-87
2022/01/14 12:05:26;;;;;;;0.80;0.60;;;9.00;99.90;;;;;;4958228;28;20449;-87
2022/01/14 12:08:04;;;;;;;0.80;0.60;;;9.20;99.90;;;;;;4965309;28;20441;-87
2022/01/14 12:10:30;;;;;;;0.90;0.67;;;9.90;99.90;;;;;;4964565;28;20876;-86
2022/01/14 12:16:03;;;;;;;0.80;0.50;;;10.70;99.90;;;;;;4959958;28;20478;-87
2022/01/14 12:18:59;;;;;;;0.80;0.50;;;10.70;99.90;;;;;;4951338;28;20509;-90
2022/01/14 12:21:43;;;;;;;0.80;0.50;;;11.30;99.90;;;;;;4943342;28;20433;-90
2022/01/14 12:24:14;;;;;;;0.80;0.50;;;10.80;99.90;;;;;;4956914;28;20527;-90
2022/01/14 12:27:03;;;;;;;0.80;0.50;;;10.90;99.90;;;;;;4972972;28;20504;-87
2022/01/14 12:29:34;;;;;;;0.80;0.50;;;10.20;99.90;;;;;;4949556;28;20442;-88
2022/01/14 12:32:10;;;;;;;0.90;0.70;;;10.40;99.90;;;;;;4966758;28;20482;-91
2022/01/14 12:34:57;;;;;;;0.80;0.50;;;10.80;99.90;;;;;;4953534;28;20446;-90
2022/01/14 12:37:29;;;;;;;0.80;0.50;;;11.10;99.90;;;;;;4955612;28;20481;-90
2022/01/14 12:39:56;;;;;;;0.80;0.50;;;10.80;99.90;;;;;;4976871;28;20461;-89
2022/01/14 12:42:23;;;;;;;4.30;1.83;;;10.80;99.90;;;;;;4964021;28;20439;-90
2022/01/14 12:44:54;;;;;;;0.90;0.70;;;11.00;99.90;;;;;;4958469;28;20496;-89
2022/01/14 12:47:31;;;;;;;0.90;0.50;;;11.10;99.90;;;;;;4952895;28;20437;-92
2022/01/14 12:50:04;;;;;;;0.90;0.50;;;11.40;99.90;;;;;;4940433;29;20521;-91
2022/01/14 12:52:38;;;;;;;0.90;0.50;;;11.80;99.90;;;;;;4969464;28;20484;-91
2022/01/14 12:55:08;;;;;;;0.90;0.50;;;11.70;99.90;;;;;;4968415;28;21048;-91
2022/01/14 12:57:34;;;;;;;0.90;0.50;;;12.00;99.90;;;;;;4970867;28;20588;-91
2022/01/14 12:59:59;;;;;;;1.00;0.83;;;11.80;99.90;;;;;;4953018;28;20622;-91
2022/01/14 13:02:31;;;;;;;0.80;0.50;;;11.20;99.90;;;;;;4972382;28;20201;-90
2022/01/14 13:05:04;;;;;;;0.80;0.50;;;11.00;99.90;;;;;;4966335;28;20266;-91
2022/01/14 13:07:30;;;;;;;0.80;0.50;;;10.50;99.90;;;;;;4964284;28;20443;-91
2022/01/14 13:09:56;;;;;;;0.80;0.50;;;11.30;99.90;;;;;;4973889;28;20484;-93
2022/01/14 13:12:26;;;;;;;0.80;0.50;;;12.00;99.90;;;;;;4973691;28;20445;-92
2022/01/14 13:14:59;;;;;;;0.80;0.50;;;12.20;99.90;;;;;;4970578;28;20885;-92
2022/01/14 13:17:28;;;;;;;0.90;0.60;;;12.60;99.90;;;;;;4979354;28;20485;-91
2022/01/14 13:20:14;;;;;;;0.90;0.50;;;13.40;99.90;;;;;;4978388;28;20437;-92
2022/01/14 13:22:43;;;;;;;0.90;0.50;;;13.50;99.90;;;;;;4986701;28;20789;-92
2022/01/14 13:25:22;;;;;;;0.90;0.50;;;13.30;99.90;;;;;;4967965;28;20796;-85
2022/01/14 13:27:56;;;;;;;8.83;1.23;;;12.50;99.90;;;;;;4956669;28;20514;-87